createdAt,value
2022-09-28T00:02:23.323Z,0.43
2022-09-28T00:04:49.803Z,0.20
2022-09-28T00:07:16.202Z,0.53
2022-09-28T00:09:43.181Z,0.30
2022-09-28T00:12:09.628Z,0.53
2022-09-28T00:14:37.034Z,0.43
2022-09-28T00:17:03.514Z,0.20
2022-09-28T00:19:29.880Z,0.40
2022-09-28T00:21:56.270Z,0.40
2022-09-28T00:24:27.334Z,0.23
2022-09-28T00:26:56.051Z,0.40
2022-09-28T00:29:34.550Z,0.30
2022-09-28T00:32:11.749Z,0.30
2022-09-28T00:34:45.927Z,0.40
2022-09-28T00:37:14.031Z,0.63
2022-09-28T00:39:44.354Z,0.30
2022-09-28T00:42:14.493Z,0.40
2022-09-28T00:44:47.834Z,0.40
2022-09-28T00:47:35.433Z,0.47
2022-09-28T00:50:20.382Z,0.60
2022-09-28T00:52:53.245Z,0.40
2022-09-28T00:55:27.831Z,0.93
2022-09-28T00:57:58.274Z,0.20
2022-09-28T01:00:24.901Z,0.40
2022-09-28T01:02:51.574Z,0.30
2022-09-28T01:05:20.783Z,0.40
2022-09-28T01:07:47.791Z,0.27
2022-09-28T01:10:14.874Z,0.20
2022-09-28T01:12:41.249Z,0.40
2022-09-28T01:15:08.161Z,0.30
2022-09-28T01:18:11.526Z,0.70
2022-09-28T01:20:51.175Z,0.73
2022-09-28T01:23:42.874Z,0.33
2022-09-28T01:26:34.405Z,0.57
2022-09-28T01:29:42.151Z,0.60
2022-09-28T01:32:23.469Z,0.30
2022-09-28T01:34:58.686Z,0.53
2022-09-28T01:37:35.449Z,0.50
2022-09-28T01:40:05.438Z,0.50
2022-09-28T01:42:36.130Z,0.50
2022-09-28T01:45:10.512Z,0.37
2022-09-28T01:47:39.883Z,0.30
2022-09-28T01:50:16.699Z,0.40
2022-09-28T01:52:50.069Z,0.30
2022-09-28T01:55:39.272Z,0.30
2022-09-28T01:58:23.193Z,0.33
2022-09-28T02:00:57.118Z,0.40
2022-09-28T02:03:42.953Z,0.20
2022-09-28T02:06:18.506Z,1.20
2022-09-28T02:08:56.076Z,0.63
2022-09-28T02:11:23.149Z,0.50
2022-09-28T02:14:10.900Z,0.50
2022-09-28T02:16:41.263Z,0.30
2022-09-28T02:19:13.942Z,0.50
2022-09-28T02:21:47.551Z,0.20
2022-09-28T02:24:21.400Z,0.30
2022-09-28T02:26:50.968Z,0.20
2022-09-28T02:29:17.625Z,0.20
2022-09-28T02:31:44.216Z,0.20
2022-09-28T02:34:10.684Z,0.23
2022-09-28T02:36:37.211Z,0.43
2022-09-28T02:39:03.655Z,0.30
2022-09-28T02:41:48.056Z,0.20
2022-09-28T02:44:36.212Z,0.30
2022-09-28T02:47:02.602Z,0.30
2022-09-28T02:50:05.375Z,0.47
2022-09-28T02:52:50.114Z,0.30
2022-09-28T02:55:31.846Z,0.30
2022-09-28T02:58:24.162Z,0.30
2022-09-28T03:01:01.322Z,0.20
2022-09-28T03:03:37.713Z,0.20
2022-09-28T03:06:29.325Z,0.20
2022-09-28T03:09:14.129Z,0.30
2022-09-28T03:11:55.846Z,0.20
2022-09-28T03:14:22.421Z,0.10
2022-09-28T03:16:48.823Z,0.50
2022-09-28T03:19:19.901Z,0.20
2022-09-28T03:21:46.284Z,0.30
2022-09-28T03:24:13.086Z,0.20
2022-09-28T03:26:39.631Z,0.23
2022-09-28T03:29:06.277Z,0.20
2022-09-28T03:31:32.785Z,0.20
2022-09-28T03:33:59.231Z,0.30
2022-09-28T03:36:25.678Z,0.30
2022-09-28T03:38:55.493Z,0.30
2022-09-28T03:41:23.550Z,0.23
2022-09-28T03:43:50.071Z,0.27
2022-09-28T03:46:16.519Z,0.27
2022-09-28T03:48:42.943Z,0.20
2022-09-28T03:51:11.979Z,0.30
2022-09-28T03:53:39.868Z,0.13
2022-09-28T03:56:10.922Z,0.10
2022-09-28T03:58:37.832Z,0.30
2022-09-28T04:01:06.899Z,0.30
2022-09-28T04:03:33.621Z,0.10
2022-09-28T04:06:00.529Z,0.27
2022-09-28T04:08:27.135Z,0.20
2022-09-28T04:10:57.747Z,0.10
2022-09-28T04:13:25.014Z,0.30
2022-09-28T04:15:59.387Z,0.20
2022-09-28T04:18:26.055Z,0.20
2022-09-28T04:21:10.789Z,0.20
2022-09-28T04:23:39.570Z,0.30
2022-09-28T04:26:07.729Z,0.50
2022-09-28T04:28:53.159Z,0.27
2022-09-28T04:31:22.621Z,0.30
2022-09-28T04:33:49.242Z,0.20
2022-09-28T04:36:15.666Z,0.50
2022-09-28T04:38:52.751Z,0.30
2022-09-28T04:41:20.031Z,0.40
2022-09-28T04:43:47.528Z,0.50
2022-09-28T04:46:14.737Z,0.50
2022-09-28T04:48:41.202Z,0.60
2022-09-28T04:51:07.770Z,0.80
2022-09-28T04:53:35.080Z,0.60
2022-09-28T04:56:04.296Z,0.60
2022-09-28T04:58:31.710Z,0.50
2022-09-28T05:01:00.797Z,0.50
2022-09-28T05:03:27.996Z,0.60
2022-09-28T05:05:54.558Z,0.40
2022-09-28T05:08:21.127Z,0.90
2022-09-28T05:10:47.554Z,0.60
2022-09-28T05:13:15.360Z,0.60
2022-09-28T05:15:42.499Z,0.50
2022-09-28T05:18:09.198Z,0.60
2022-09-28T05:20:41.467Z,0.77
2022-09-28T05:23:10.227Z,0.80
2022-09-28T05:25:36.955Z,0.80
2022-09-28T05:28:03.772Z,0.57
2022-09-28T05:30:30.148Z,0.50
2022-09-28T05:32:56.515Z,0.53
2022-09-28T05:35:23.143Z,0.33
2022-09-28T05:37:49.647Z,0.63
2022-09-28T05:40:16.824Z,0.50
2022-09-28T05:42:43.372Z,0.60
2022-09-28T05:45:10.571Z,0.43
2022-09-28T05:47:40.962Z,1.00
2022-09-28T05:50:09.398Z,0.60
2022-09-28T05:52:35.756Z,0.87
2022-09-28T05:55:02.675Z,0.60
2022-09-28T05:57:30.299Z,1.00
2022-09-28T05:59:56.703Z,0.60
2022-09-28T06:02:23.507Z,0.63
2022-09-28T06:04:51.176Z,0.60
2022-09-28T06:07:21.914Z,0.80
2022-09-28T06:09:48.289Z,0.73
2022-09-28T06:12:15.997Z,0.70
2022-09-28T06:14:42.422Z,0.87
2022-09-28T06:17:09.119Z,0.70
2022-09-28T06:19:35.524Z,1.00
2022-09-28T06:22:02.074Z,1.10
2022-09-28T06:24:28.466Z,0.77
2022-09-28T06:26:54.938Z,0.50
2022-09-28T06:29:21.337Z,0.50
2022-09-28T06:31:48.041Z,0.50
2022-09-28T06:34:14.558Z,0.40
2022-09-28T06:36:41.185Z,0.70
2022-09-28T06:39:07.798Z,0.40
2022-09-28T06:41:34.145Z,0.80
2022-09-28T06:44:01.975Z,1.60
2022-09-28T06:46:28.522Z,0.80
2022-09-28T06:48:55.049Z,1.30
2022-09-28T06:51:21.888Z,0.73
2022-09-28T06:53:48.326Z,0.60
2022-09-28T06:56:14.692Z,0.63
2022-09-28T06:58:41.046Z,0.50
2022-09-28T07:01:07.550Z,0.50
2022-09-28T07:03:33.966Z,0.57
2022-09-28T07:06:00.417Z,0.50
2022-09-28T07:08:29.156Z,0.70
2022-09-28T07:10:56.363Z,0.67
2022-09-28T07:13:49.218Z,0.50
2022-09-28T07:16:16.446Z,0.50
2022-09-28T07:18:43.900Z,0.60
2022-09-28T07:21:21.441Z,0.70
2022-09-28T07:23:54.222Z,0.60
2022-09-28T07:26:23.637Z,0.57
2022-09-28T07:28:50.956Z,0.67
2022-09-28T07:31:17.411Z,0.60
2022-09-28T07:33:43.823Z,0.70
2022-09-28T07:36:10.717Z,0.70
2022-09-28T07:38:38.255Z,0.70
2022-09-28T07:41:14.223Z,0.60
2022-09-28T07:43:41.438Z,0.70
2022-09-28T07:46:12.365Z,0.40
2022-09-28T07:48:43.551Z,0.80
2022-09-28T07:51:10.356Z,0.60
2022-09-28T07:53:38.400Z,0.40
2022-09-28T07:56:07.297Z,0.43
2022-09-28T07:58:35.555Z,0.70
2022-09-28T08:01:07.857Z,0.47
2022-09-28T08:03:35.366Z,0.50
2022-09-28T08:06:04.772Z,0.60
2022-09-28T08:08:33.634Z,0.70
2022-09-28T08:11:00.046Z,0.47
2022-09-28T08:13:27.255Z,0.40
2022-09-28T08:15:54.488Z,0.40
2022-09-28T08:18:21.580Z,0.60
2022-09-28T08:21:06.625Z,0.40
2022-09-28T08:23:33.048Z,0.40
2022-09-28T08:25:59.560Z,0.40
2022-09-28T08:28:26.244Z,0.50
2022-09-28T08:30:52.724Z,0.40
2022-09-28T08:33:23.174Z,0.40
2022-09-28T08:35:57.528Z,0.50
2022-09-28T08:38:25.555Z,0.20
2022-09-28T08:41:10.453Z,0.33
2022-09-28T08:43:57.066Z,0.57
2022-09-28T08:46:29.190Z,0.33
2022-09-28T08:49:24.597Z,0.30
2022-09-28T08:51:58.231Z,0.40
2022-09-28T08:54:38.965Z,0.40
2022-09-28T08:57:19.116Z,0.50
2022-09-28T08:59:54.556Z,0.30
2022-09-28T09:02:27.317Z,0.40
2022-09-28T09:04:54.801Z,0.60
2022-09-28T09:07:39.938Z,0.47
2022-09-28T09:10:28.568Z,0.40
2022-09-28T09:13:14.908Z,0.50
2022-09-28T09:15:51.822Z,0.40
2022-09-28T09:18:22.947Z,0.43
2022-09-28T09:20:56.895Z,0.60
2022-09-28T09:23:46.089Z,0.30
2022-09-28T09:26:21.850Z,0.30
2022-09-28T09:28:58.890Z,0.60
2022-09-28T09:31:40.857Z,0.53
2022-09-28T09:34:33.931Z,0.50
2022-09-28T09:37:26.362Z,0.40
2022-09-28T09:40:26.248Z,0.27
2022-09-28T09:43:34.026Z,0.50
2022-09-28T09:46:23.109Z,0.40
2022-09-28T09:48:56.981Z,0.30
2022-09-28T09:51:57.410Z,0.27
2022-09-28T09:54:32.035Z,0.30
2022-09-28T09:57:06.328Z,0.20
2022-09-28T09:59:37.703Z,0.10
2022-09-28T10:02:19.506Z,0.50
2022-09-28T10:04:46.990Z,1.30
2022-09-28T10:07:22.170Z,0.90
2022-09-28T10:09:50.741Z,0.40
2022-09-28T10:12:21.717Z,0.43
2022-09-28T10:14:48.219Z,0.37
2022-09-28T10:17:18.148Z,0.27
2022-09-28T10:19:44.632Z,0.30
2022-09-28T10:22:16.469Z,0.63
2022-09-28T10:24:46.559Z,0.30
2022-09-28T10:27:26.764Z,0.40
2022-09-28T10:29:59.235Z,0.20
2022-09-28T10:32:35.918Z,0.20
2022-09-28T10:35:21.565Z,0.50
2022-09-28T10:37:59.638Z,0.37
2022-09-28T10:40:50.670Z,0.30
2022-09-28T10:43:26.503Z,0.40
2022-09-28T10:46:13.503Z,0.30
2022-09-28T10:48:58.452Z,0.63
2022-09-28T10:51:53.323Z,0.30
2022-09-28T10:54:30.913Z,0.20
2022-09-28T10:56:58.610Z,0.30
2022-09-28T10:59:31.181Z,0.50
2022-09-28T11:02:09.535Z,0.40
2022-09-28T11:04:42.501Z,0.60
2022-09-28T11:07:25.956Z,0.40
2022-09-28T11:09:54.599Z,0.50
2022-09-28T11:12:23.860Z,0.50
2022-09-28T11:14:58.276Z,0.40
2022-09-28T11:17:33.583Z,0.50
2022-09-28T11:20:26.101Z,0.60
2022-09-28T11:22:59.633Z,0.50
2022-09-28T11:25:28.460Z,0.30
2022-09-28T11:27:56.017Z,0.40
2022-09-28T11:30:33.762Z,0.30
2022-09-28T11:33:08.071Z,0.30
2022-09-28T11:35:41.945Z,0.20
2022-09-28T11:38:29.191Z,0.30
2022-09-28T11:41:25.867Z,0.40
2022-09-28T11:44:07.144Z,0.40
2022-09-28T11:46:59.651Z,0.70
2022-09-28T11:49:33.709Z,0.60
2022-09-28T11:52:06.823Z,0.30
2022-09-28T11:54:55.614Z,0.10
2022-09-28T11:57:27.494Z,0.20
2022-09-28T11:59:59.882Z,0.20
2022-09-28T12:02:36.836Z,0.50
2022-09-28T12:05:20.674Z,0.90
2022-09-28T12:07:52.202Z,0.23
2022-09-28T12:10:27.065Z,0.23
2022-09-28T12:13:03.912Z,0.20
2022-09-28T12:16:20.072Z,0.33
2022-09-28T12:21:42.519Z,0.30
2022-09-28T12:24:17.883Z,0.40
2022-09-28T12:26:51.694Z,0.20
2022-09-28T12:29:32.051Z,0.20
2022-09-28T12:32:15.191Z,0.20
2022-09-28T12:34:42.944Z,0.30
2022-09-28T12:37:44.563Z,0.20
2022-09-28T12:40:37.904Z,0.40
2022-09-28T12:43:33.378Z,0.20
2022-09-28T12:46:17.598Z,0.20
2022-09-28T12:49:56.220Z,0.20
2022-09-28T12:51:59.567Z,0.20
2022-09-28T12:54:50.516Z,0.20
2022-09-28T12:57:41.947Z,0.30
2022-09-28T13:00:15.764Z,0.20
2022-09-28T13:03:02.322Z,0.30
2022-09-28T13:06:05.652Z,0.47
2022-09-28T13:08:44.181Z,0.30
2022-09-28T13:11:21.959Z,0.37
2022-09-28T13:14:03.039Z,0.10
2022-09-28T13:16:45.998Z,0.20
2022-09-28T13:19:38.276Z,0.20
2022-09-28T13:22:28.842Z,0.30
2022-09-28T13:24:59.390Z,0.30
2022-09-28T13:27:33.374Z,0.20
2022-09-28T13:30:02.963Z,0.27
2022-09-28T13:32:32.713Z,0.20
2022-09-28T13:35:02.337Z,0.10
2022-09-28T13:37:29.739Z,0.20
2022-09-28T13:40:05.760Z,0.20
2022-09-28T13:42:44.304Z,0.67
2022-09-28T13:45:23.008Z,0.20
2022-09-28T13:48:13.236Z,0.30
2022-09-28T13:50:58.342Z,0.23
2022-09-28T13:54:03.428Z,0.23
2022-09-28T13:56:53.562Z,0.40
2022-09-28T13:59:30.242Z,0.30
2022-09-28T14:02:07.069Z,0.23
2022-09-28T14:05:25.514Z,0.60
2022-09-28T14:08:14.539Z,0.30
2022-09-28T14:10:52.025Z,0.30
2022-09-28T14:14:08.546Z,0.30
2022-09-28T14:16:36.850Z,0.40
2022-09-28T14:19:12.749Z,0.30
2022-09-28T14:21:59.746Z,0.30
2022-09-28T14:24:38.447Z,0.30
2022-09-28T14:27:41.792Z,0.20
2022-09-28T14:30:10.907Z,0.57
2022-09-28T14:32:38.884Z,0.40
2022-09-28T14:35:23.670Z,0.33
2022-09-28T14:38:13.788Z,0.30
2022-09-28T14:41:10.536Z,0.30
2022-09-28T14:43:46.056Z,0.50
2022-09-28T14:46:15.653Z,0.37
2022-09-28T14:48:48.985Z,0.40
2022-09-28T14:51:27.572Z,0.40
2022-09-28T14:53:56.497Z,0.30
2022-09-28T14:56:23.889Z,0.30
2022-09-28T14:58:54.906Z,0.40
2022-09-28T15:01:24.645Z,0.30
2022-09-28T15:04:02.044Z,0.47
2022-09-28T15:06:44.935Z,0.57
2022-09-28T15:09:32.005Z,0.23
2022-09-28T15:12:02.555Z,0.20
2022-09-28T15:14:31.708Z,0.20
2022-09-28T15:17:02.890Z,0.50
2022-09-28T15:19:38.184Z,0.43
2022-09-28T15:22:17.158Z,0.20
2022-09-28T15:25:02.903Z,0.47
2022-09-28T15:27:38.053Z,0.40
2022-09-28T15:30:31.812Z,0.40
2022-09-28T15:33:19.538Z,0.50
2022-09-28T15:35:59.346Z,0.50
2022-09-28T15:38:26.009Z,0.60
2022-09-28T15:40:52.687Z,0.37
2022-09-28T15:43:33.690Z,0.47
2022-09-28T15:46:20.948Z,0.37
2022-09-28T15:48:53.645Z,0.50
2022-09-28T15:51:22.090Z,0.30
2022-09-28T15:54:09.194Z,0.33
2022-09-28T15:57:01.940Z,0.40
2022-09-28T15:59:39.544Z,0.30
2022-09-28T16:02:18.991Z,0.40
2022-09-28T16:04:47.924Z,0.50
2022-09-28T16:07:38.688Z,0.40
2022-09-28T16:10:14.354Z,0.47
2022-09-28T16:12:42.432Z,0.63
2022-09-28T16:15:20.601Z,0.73
2022-09-28T16:18:06.730Z,0.80
2022-09-28T16:20:36.355Z,0.53
2022-09-28T16:23:19.065Z,0.50
2022-09-28T16:26:17.392Z,0.90
2022-09-28T16:28:46.005Z,0.30
2022-09-28T16:31:12.394Z,0.70
2022-09-28T16:34:21.513Z,0.60
2022-09-28T16:36:49.220Z,0.57
2022-09-28T16:39:16.983Z,0.33
2022-09-28T16:41:51.615Z,0.50
2022-09-28T16:44:24.848Z,0.63
2022-09-28T16:46:55.107Z,0.40
2022-09-28T16:49:23.741Z,0.80
2022-09-28T16:51:50.389Z,0.40
2022-09-28T16:54:41.132Z,0.50
2022-09-28T16:57:11.388Z,0.60
2022-09-28T16:59:38.416Z,0.43
2022-09-28T17:02:45.145Z,0.30
2022-09-28T17:05:07.108Z,0.60
2022-09-28T17:07:34.135Z,0.70
2022-09-28T17:10:01.498Z,0.60
2022-09-28T17:12:28.892Z,0.67
2022-09-28T17:14:55.408Z,0.37
2022-09-28T17:17:22.698Z,0.40
2022-09-28T17:19:50.126Z,0.40
2022-09-28T17:22:18.322Z,0.70
2022-09-28T17:24:46.102Z,0.60
2022-09-28T17:27:19.294Z,0.87
2022-09-28T17:29:45.681Z,1.00
2022-09-28T17:32:18.148Z,0.60
2022-09-28T17:34:51.521Z,0.50
2022-09-28T17:37:22.539Z,0.63
2022-09-28T17:39:48.924Z,0.40
2022-09-28T17:42:17.190Z,0.50
2022-09-28T17:44:43.567Z,0.60
2022-09-28T17:47:11.300Z,0.60
2022-09-28T17:49:38.802Z,0.60
2022-09-28T17:52:05.529Z,0.70
2022-09-28T17:54:33.743Z,0.30
2022-09-28T17:57:00.288Z,0.33
2022-09-28T17:59:28.044Z,0.73
2022-09-28T18:01:54.555Z,0.60
2022-09-28T18:04:47.117Z,1.20
2022-09-28T18:07:07.484Z,0.93
2022-09-28T18:09:34.085Z,1.17
2022-09-28T18:12:04.107Z,1.20
2022-09-28T18:14:30.674Z,1.67
2022-09-28T18:16:57.276Z,1.60
2022-09-28T18:19:24.488Z,1.77
2022-09-28T18:21:52.479Z,1.57
2022-09-28T18:24:19.181Z,1.30
2022-09-28T18:26:45.600Z,1.60
2022-09-28T18:29:12.070Z,1.50
2022-09-28T18:31:39.062Z,2.23
2022-09-28T18:34:06.170Z,2.87
2022-09-28T18:36:35.810Z,2.00
2022-09-28T18:39:02.889Z,1.67
2022-09-28T18:41:29.355Z,1.17
2022-09-28T18:44:00.640Z,1.20
2022-09-28T18:46:28.523Z,1.20
2022-09-28T18:48:55.293Z,0.77
2022-09-28T18:51:22.352Z,0.87
2022-09-28T18:53:49.038Z,0.60
2022-09-28T18:56:21.044Z,0.80
2022-09-28T18:58:51.157Z,0.97
2022-09-28T19:01:36.255Z,0.90
2022-09-28T19:04:05.421Z,0.70
2022-09-28T19:06:34.234Z,1.10
2022-09-28T19:09:01.349Z,0.60
2022-09-28T19:11:28.649Z,0.77
2022-09-28T19:13:55.743Z,0.90
2022-09-28T19:16:26.030Z,1.20
2022-09-28T19:18:53.565Z,1.00
2022-09-28T19:21:20.220Z,0.83
2022-09-28T19:23:49.748Z,1.20
2022-09-28T19:26:20.753Z,1.00
2022-09-28T19:28:47.790Z,0.97
2022-09-28T19:31:14.481Z,0.90
2022-09-28T19:33:41.700Z,0.90
2022-09-28T19:36:10.852Z,0.73
2022-09-28T19:38:38.631Z,0.90
2022-09-28T19:41:10.164Z,0.90
2022-09-28T19:43:36.625Z,1.00
2022-09-28T19:46:06.918Z,1.00
2022-09-28T19:48:34.367Z,1.10
2022-09-28T19:51:03.742Z,1.23
2022-09-28T19:53:32.932Z,0.90
2022-09-28T19:56:05.356Z,1.33
2022-09-28T19:58:34.865Z,1.63
2022-09-28T20:01:07.926Z,1.40
2022-09-28T20:03:35.294Z,1.40
2022-09-28T20:06:02.350Z,1.40
2022-09-28T20:08:32.105Z,1.50
2022-09-28T20:10:59.782Z,1.70
2022-09-28T20:13:34.792Z,1.40
2022-09-28T20:16:12.504Z,1.33
2022-09-28T20:18:40.287Z,1.83
2022-09-28T20:21:17.116Z,1.57
2022-09-28T20:23:45.607Z,1.50
2022-09-28T20:26:12.708Z,1.67
2022-09-28T20:28:39.505Z,1.40
2022-09-28T20:31:12.419Z,1.90
2022-09-28T20:33:39.452Z,2.17
2022-09-28T20:36:08.171Z,2.57
2022-09-28T20:38:35.162Z,2.60
2022-09-28T20:41:02.638Z,2.17
2022-09-28T20:43:31.972Z,2.90
2022-09-28T20:45:58.643Z,2.20
2022-09-28T20:48:26.191Z,2.13
2022-09-28T20:51:03.791Z,2.27
2022-09-28T20:53:31.284Z,2.20
2022-09-28T20:55:59.900Z,2.27
2022-09-28T20:58:27.211Z,2.67
2022-09-28T21:01:02.698Z,2.13
2022-09-28T21:03:29.313Z,2.53
2022-09-28T21:05:55.775Z,2.30
2022-09-28T21:08:23.799Z,2.63
2022-09-28T21:10:52.656Z,2.27
2022-09-28T21:13:19.823Z,2.43
2022-09-28T21:15:47.413Z,2.50
2022-09-28T21:18:13.837Z,2.67
2022-09-28T21:20:48.549Z,2.27
2022-09-28T21:23:16.586Z,2.53
2022-09-28T21:25:45.563Z,1.97
2022-09-28T21:28:17.975Z,2.80
2022-09-28T21:30:45.477Z,2.53
2022-09-28T21:33:11.845Z,2.73
2022-09-28T21:35:39.299Z,2.70
2022-09-28T21:38:05.757Z,3.13
2022-09-28T21:40:32.476Z,3.00
2022-09-28T21:42:58.945Z,2.53
2022-09-28T21:45:25.330Z,3.10
2022-09-28T21:47:53.455Z,2.93
2022-09-28T21:50:22.707Z,2.57
2022-09-28T21:52:50.681Z,2.33
2022-09-28T21:55:17.447Z,2.70
2022-09-28T21:57:47.893Z,2.97
2022-09-28T22:00:16.293Z,3.07
2022-09-28T22:02:43.812Z,2.90
2022-09-28T22:05:11.399Z,2.43
2022-09-28T22:07:39.481Z,2.80
2022-09-28T22:10:07.433Z,2.63
2022-09-28T22:12:33.910Z,2.80
2022-09-28T22:15:00.394Z,2.20
2022-09-28T22:17:26.775Z,2.97
2022-09-28T22:19:53.329Z,2.60
2022-09-28T22:22:19.841Z,2.50
2022-09-28T22:24:46.245Z,2.67
2022-09-28T22:27:12.919Z,2.80
2022-09-28T22:29:39.274Z,2.47
2022-09-28T22:32:07.458Z,2.47
2022-09-28T22:34:33.954Z,2.50
2022-09-28T22:37:04.029Z,3.00
2022-09-28T22:39:36.702Z,2.93
2022-09-28T22:42:04.077Z,2.57
2022-09-28T22:44:30.471Z,2.80
2022-09-28T22:46:56.946Z,2.50
2022-09-28T22:49:23.715Z,2.43
2022-09-28T22:51:50.233Z,2.70
2022-09-28T22:54:16.728Z,2.60
2022-09-28T22:56:43.681Z,2.57
2022-09-28T22:59:11.579Z,2.57
2022-09-28T23:01:38.303Z,2.40
2022-09-28T23:04:04.713Z,2.33
2022-09-28T23:06:31.134Z,2.33
2022-09-28T23:08:57.947Z,2.33
2022-09-28T23:11:24.787Z,2.30
2022-09-28T23:13:52.787Z,2.57
2022-09-28T23:16:20.088Z,2.30
2022-09-28T23:18:46.788Z,2.63
2022-09-28T23:21:18.113Z,2.83
2022-09-28T23:23:47.136Z,2.70
2022-09-28T23:26:16.554Z,2.50
2022-09-28T23:28:44.003Z,2.27
2022-09-28T23:31:13.711Z,2.53
2022-09-28T23:33:40.467Z,2.67
2022-09-28T23:36:07.445Z,2.60
2022-09-28T23:38:34.124Z,2.53
2022-09-28T23:41:00.586Z,2.13
2022-09-28T23:43:27.052Z,3.00
2022-09-28T23:45:53.511Z,2.30
2022-09-28T23:48:19.870Z,3.10
2022-09-28T23:50:46.384Z,2.77
2022-09-28T23:53:14.483Z,2.57
2022-09-28T23:55:44.185Z,2.40
2022-09-28T23:58:11.657Z,2.33
